sensor_id;sensor_type;location;lat;lon;timestamp;P1;durP1;ratioP1;P2;durP2;ratioP2
66521;SDS011;53349;53.538;8.584;2023-09-19T00:00:28;8.07;;;1.90;;
66521;SDS011;53349;53.538;8.584;2023-09-19T00:02:54;8.30;;;1.83;;
66521;SDS011;53349;53.538;8.584;2023-09-19T00:05:23;6.45;;;1.67;;
66521;SDS011;53349;53.538;8.584;2023-09-19T00:07:48;11.05;;;1.83;;
66521;SDS011;53349;53.538;8.584;2023-09-19T00:10:15;6.57;;;1.87;;
66521;SDS011;53349;53.538;8.584;2023-09-19T00:12:42;5.30;;;1.58;;
66521;SDS011;53349;53.538;8.584;2023-09-19T00:15:08;5.45;;;1.65;;
66521;SDS011;53349;53.538;8.584;2023-09-19T00:17:33;5.57;;;1.60;;
66521;SDS011;53349;53.538;8.584;2023-09-19T00:20:00;4.73;;;1.60;;
66521;SDS011;53349;53.538;8.584;2023-09-19T00:22:25;8.40;;;1.92;;
66521;SDS011;53349;53.538;8.584;2023-09-19T00:24:51;5.40;;;1.40;;
66521;SDS011;53349;53.538;8.584;2023-09-19T00:27:17;7.45;;;2.00;;
66521;SDS011;53349;53.538;8.584;2023-09-19T00:29:43;7.07;;;1.70;;
66521;SDS011;53349;53.538;8.584;2023-09-19T00:32:08;4.68;;;1.63;;
66521;SDS011;53349;53.538;8.584;2023-09-19T00:34:33;5.40;;;1.60;;
66521;SDS011;53349;53.538;8.584;2023-09-19T00:36:59;4.33;;;1.70;;
66521;SDS011;53349;53.538;8.584;2023-09-19T00:39:24;7.97;;;1.70;;
66521;SDS011;53349;53.538;8.584;2023-09-19T00:41:49;6.20;;;1.97;;
66521;SDS011;53349;53.538;8.584;2023-09-19T00:44:15;6.80;;;1.57;;
66521;SDS011;53349;53.538;8.584;2023-09-19T00:46:40;5.33;;;1.43;;
66521;SDS011;53349;53.538;8.584;2023-09-19T00:49:06;5.55;;;1.60;;
66521;SDS011;53349;53.538;8.584;2023-09-19T00:51:33;5.90;;;1.30;;
66521;SDS011;53349;53.538;8.584;2023-09-19T00:53:59;4.32;;;1.10;;
66521;SDS011;53349;53.538;8.584;2023-09-19T00:56:25;6.00;;;1.10;;
66521;SDS011;53349;53.538;8.584;2023-09-19T00:58:51;4.03;;;1.05;;
66521;SDS011;53349;53.538;8.584;2023-09-19T01:01:17;5.22;;;1.40;;
66521;SDS011;53349;53.538;8.584;2023-09-19T01:03:42;5.20;;;1.42;;
66521;SDS011;53349;53.538;8.584;2023-09-19T01:06:09;4.80;;;1.10;;
66521;SDS011;53349;53.538;8.584;2023-09-19T01:08:35;6.57;;;1.63;;
66521;SDS011;53349;53.538;8.584;2023-09-19T01:13:37;5.35;;;1.20;;
66521;SDS011;53349;53.538;8.584;2023-09-19T01:16:23;5.20;;;1.20;;
66521;SDS011;53349;53.538;8.584;2023-09-19T01:30:32;9.18;;;1.30;;
66521;SDS011;53349;53.538;8.584;2023-09-19T01:33:00;5.40;;;1.40;;
66521;SDS011;53349;53.538;8.584;2023-09-19T01:35:26;6.25;;;1.38;;
66521;SDS011;53349;53.538;8.584;2023-09-19T01:37:52;7.30;;;1.33;;
66521;SDS011;53349;53.538;8.584;2023-09-19T01:40:17;6.20;;;1.20;;
66521;SDS011;53349;53.538;8.584;2023-09-19T01:51:51;4.55;;;1.35;;
66521;SDS011;53349;53.538;8.584;2023-09-19T01:54:30;4.45;;;1.00;;
66521;SDS011;53349;53.538;8.584;2023-09-19T01:59:48;7.13;;;1.40;;
66521;SDS011;53349;53.538;8.584;2023-09-19T02:02:17;5.93;;;1.25;;
66521;SDS011;53349;53.538;8.584;2023-09-19T02:04:43;4.72;;;1.27;;
66521;SDS011;53349;53.538;8.584;2023-09-19T02:07:08;5.93;;;1.43;;
66521;SDS011;53349;53.538;8.584;2023-09-19T02:09:34;5.43;;;1.38;;
66521;SDS011;53349;53.538;8.584;2023-09-19T02:11:59;8.57;;;1.15;;
66521;SDS011;53349;53.538;8.584;2023-09-19T02:14:24;6.03;;;1.20;;
66521;SDS011;53349;53.538;8.584;2023-09-19T02:16:50;4.60;;;1.47;;
66521;SDS011;53349;53.538;8.584;2023-09-19T02:19:15;5.03;;;1.30;;
66521;SDS011;53349;53.538;8.584;2023-09-19T02:21:40;5.03;;;0.90;;
66521;SDS011;53349;53.538;8.584;2023-09-19T02:24:08;4.85;;;0.90;;
66521;SDS011;53349;53.538;8.584;2023-09-19T02:26:33;6.93;;;1.00;;
66521;SDS011;53349;53.538;8.584;2023-09-19T02:28:59;4.73;;;1.13;;
66521;SDS011;53349;53.538;8.584;2023-09-19T02:31:25;4.35;;;0.95;;
66521;SDS011;53349;53.538;8.584;2023-09-19T02:33:52;4.95;;;1.17;;
66521;SDS011;53349;53.538;8.584;2023-09-19T02:36:17;6.73;;;1.00;;
66521;SDS011;53349;53.538;8.584;2023-09-19T02:38:44;8.00;;;1.10;;
66521;SDS011;53349;53.538;8.584;2023-09-19T02:41:10;9.15;;;1.27;;
66521;SDS011;53349;53.538;8.584;2023-09-19T02:43:36;5.85;;;1.10;;
66521;SDS011;53349;53.538;8.584;2023-09-19T02:46:01;6.43;;;1.10;;
66521;SDS011;53349;53.538;8.584;2023-09-19T02:48:26;6.03;;;1.37;;
66521;SDS011;53349;53.538;8.584;2023-09-19T02:50:52;6.37;;;0.93;;
66521;SDS011;53349;53.538;8.584;2023-09-19T02:53:17;6.10;;;1.20;;
66521;SDS011;53349;53.538;8.584;2023-09-19T02:55:43;6.55;;;1.15;;
66521;SDS011;53349;53.538;8.584;2023-09-19T02:58:08;8.27;;;1.27;;
66521;SDS011;53349;53.538;8.584;2023-09-19T03:00:34;4.90;;;1.00;;
66521;SDS011;53349;53.538;8.584;2023-09-19T03:02:59;4.47;;;1.10;;
66521;SDS011;53349;53.538;8.584;2023-09-19T03:05:25;6.67;;;1.07;;
66521;SDS011;53349;53.538;8.584;2023-09-19T03:07:53;8.00;;;1.30;;
66521;SDS011;53349;53.538;8.584;2023-09-19T03:10:20;7.90;;;1.17;;
66521;SDS011;53349;53.538;8.584;2023-09-19T03:12:47;6.85;;;1.33;;
66521;SDS011;53349;53.538;8.584;2023-09-19T03:15:13;7.77;;;1.17;;
66521;SDS011;53349;53.538;8.584;2023-09-19T03:17:43;5.68;;;1.05;;
66521;SDS011;53349;53.538;8.584;2023-09-19T03:20:12;6.07;;;1.40;;
66521;SDS011;53349;53.538;8.584;2023-09-19T03:22:38;8.40;;;1.10;;
66521;SDS011;53349;53.538;8.584;2023-09-19T03:25:06;5.85;;;1.17;;
66521;SDS011;53349;53.538;8.584;2023-09-19T03:27:32;5.38;;;1.10;;
66521;SDS011;53349;53.538;8.584;2023-09-19T03:29:57;7.70;;;1.40;;
66521;SDS011;53349;53.538;8.584;2023-09-19T03:32:23;5.57;;;1.20;;
66521;SDS011;53349;53.538;8.584;2023-09-19T03:34:48;7.85;;;1.40;;
66521;SDS011;53349;53.538;8.584;2023-09-19T03:37:15;10.13;;;1.23;;
66521;SDS011;53349;53.538;8.584;2023-09-19T03:39:40;9.00;;;1.40;;
66521;SDS011;53349;53.538;8.584;2023-09-19T03:42:06;5.10;;;1.10;;
66521;SDS011;53349;53.538;8.584;2023-09-19T03:44:31;6.47;;;1.10;;
66521;SDS011;53349;53.538;8.584;2023-09-19T03:46:56;6.17;;;1.20;;
66521;SDS011;53349;53.538;8.584;2023-09-19T03:49:22;5.03;;;1.20;;
66521;SDS011;53349;53.538;8.584;2023-09-19T03:51:47;5.28;;;1.15;;
66521;SDS011;53349;53.538;8.584;2023-09-19T03:54:14;5.00;;;1.30;;
66521;SDS011;53349;53.538;8.584;2023-09-19T03:56:40;11.18;;;1.60;;
66521;SDS011;53349;53.538;8.584;2023-09-19T03:59:05;5.77;;;1.20;;
66521;SDS011;53349;53.538;8.584;2023-09-19T04:01:31;7.00;;;1.30;;
66521;SDS011;53349;53.538;8.584;2023-09-19T04:03:56;6.30;;;1.10;;
66521;SDS011;53349;53.538;8.584;2023-09-19T04:06:21;6.90;;;1.43;;
66521;SDS011;53349;53.538;8.584;2023-09-19T04:08:47;4.63;;;1.57;;
66521;SDS011;53349;53.538;8.584;2023-09-19T04:11:12;9.27;;;1.20;;
66521;SDS011;53349;53.538;8.584;2023-09-19T04:13:37;8.30;;;1.60;;
66521;SDS011;53349;53.538;8.584;2023-09-19T04:16:03;8.70;;;1.20;;
66521;SDS011;53349;53.538;8.584;2023-09-19T04:18:28;7.90;;;1.57;;
66521;SDS011;53349;53.538;8.584;2023-09-19T04:20:54;5.50;;;1.37;;
66521;SDS011;53349;53.538;8.584;2023-09-19T04:23:19;7.22;;;1.27;;
66521;SDS011;53349;53.538;8.584;2023-09-19T04:25:45;7.20;;;1.50;;
66521;SDS011;53349;53.538;8.584;2023-09-19T04:28:10;5.40;;;1.50;;
66521;SDS011;53349;53.538;8.584;2023-09-19T04:30:36;8.47;;;1.70;;
66521;SDS011;53349;53.538;8.584;2023-09-19T04:33:02;4.13;;;1.65;;
66521;SDS011;53349;53.538;8.584;2023-09-19T04:35:29;5.95;;;1.50;;
66521;SDS011;53349;53.538;8.584;2023-09-19T04:37:55;6.73;;;1.70;;
66521;SDS011;53349;53.538;8.584;2023-09-19T04:40:21;6.70;;;1.65;;
66521;SDS011;53349;53.538;8.584;2023-09-19T04:42:52;7.03;;;1.53;;
66521;SDS011;53349;53.538;8.584;2023-09-19T04:45:18;5.28;;;1.30;;
66521;SDS011;53349;53.538;8.584;2023-09-19T04:47:44;4.10;;;1.27;;
66521;SDS011;53349;53.538;8.584;2023-09-19T04:50:10;6.72;;;1.35;;
66521;SDS011;53349;53.538;8.584;2023-09-19T04:52:38;5.47;;;1.60;;
66521;SDS011;53349;53.538;8.584;2023-09-19T04:55:06;8.02;;;1.40;;
66521;SDS011;53349;53.538;8.584;2023-09-19T04:57:31;7.97;;;1.40;;
66521;SDS011;53349;53.538;8.584;2023-09-19T04:59:57;5.60;;;1.43;;
66521;SDS011;53349;53.538;8.584;2023-09-19T05:02:22;8.53;;;2.30;;
66521;SDS011;53349;53.538;8.584;2023-09-19T05:04:47;5.70;;;1.20;;
66521;SDS011;53349;53.538;8.584;2023-09-19T05:07:13;8.03;;;1.50;;
66521;SDS011;53349;53.538;8.584;2023-09-19T05:09:41;5.68;;;1.48;;
66521;SDS011;53349;53.538;8.584;2023-09-19T05:12:06;6.73;;;1.37;;
66521;SDS011;53349;53.538;8.584;2023-09-19T05:14:32;7.07;;;1.60;;
66521;SDS011;53349;53.538;8.584;2023-09-19T05:16:57;5.82;;;1.45;;
66521;SDS011;53349;53.538;8.584;2023-09-19T05:19:23;5.43;;;1.60;;
66521;SDS011;53349;53.538;8.584;2023-09-19T05:21:48;8.57;;;1.50;;
66521;SDS011;53349;53.538;8.584;2023-09-19T05:24:13;10.33;;;1.83;;
66521;SDS011;53349;53.538;8.584;2023-09-19T05:26:39;8.83;;;1.50;;
66521;SDS011;53349;53.538;8.584;2023-09-19T05:29:05;5.63;;;1.25;;
66521;SDS011;53349;53.538;8.584;2023-09-19T05:31:30;8.93;;;1.30;;
66521;SDS011;53349;53.538;8.584;2023-09-19T05:33:56;8.93;;;1.55;;
66521;SDS011;53349;53.538;8.584;2023-09-19T05:36:21;6.23;;;1.60;;
66521;SDS011;53349;53.538;8.584;2023-09-19T05:38:48;6.83;;;1.40;;
66521;SDS011;53349;53.538;8.584;2023-09-19T05:41:13;6.72;;;1.60;;
66521;SDS011;53349;53.538;8.584;2023-09-19T05:43:39;6.80;;;1.73;;
66521;SDS011;53349;53.538;8.584;2023-09-19T05:46:05;9.10;;;1.63;;
66521;SDS011;53349;53.538;8.584;2023-09-19T05:48:30;5.43;;;1.47;;
66521;SDS011;53349;53.538;8.584;2023-09-19T05:50:56;10.98;;;1.70;;
66521;SDS011;53349;53.538;8.584;2023-09-19T05:53:22;6.83;;;1.80;;
66521;SDS011;53349;53.538;8.584;2023-09-19T05:55:47;4.77;;;1.20;;
66521;SDS011;53349;53.538;8.584;2023-09-19T05:58:12;7.57;;;1.47;;
66521;SDS011;53349;53.538;8.584;2023-09-19T06:00:39;5.38;;;1.20;;
66521;SDS011;53349;53.538;8.584;2023-09-19T06:03:05;6.00;;;1.40;;
66521;SDS011;53349;53.538;8.584;2023-09-19T06:05:30;10.65;;;1.90;;
66521;SDS011;53349;53.538;8.584;2023-09-19T06:07:56;6.07;;;1.30;;
66521;SDS011;53349;53.538;8.584;2023-09-19T06:10:22;5.80;;;1.50;;
66521;SDS011;53349;53.538;8.584;2023-09-19T06:12:48;7.47;;;1.15;;
66521;SDS011;53349;53.538;8.584;2023-09-19T06:15:15;6.27;;;1.50;;
66521;SDS011;53349;53.538;8.584;2023-09-19T06:17:47;5.82;;;1.50;;
66521;SDS011;53349;53.538;8.584;2023-09-19T06:20:17;9.95;;;1.42;;
66521;SDS011;53349;53.538;8.584;2023-09-19T06:22:43;6.80;;;1.40;;
66521;SDS011;53349;53.538;8.584;2023-09-19T06:25:09;4.53;;;1.42;;
66521;SDS011;53349;53.538;8.584;2023-09-19T06:27:36;5.90;;;1.60;;
66521;SDS011;53349;53.538;8.584;2023-09-19T06:30:05;6.50;;;1.33;;
66521;SDS011;53349;53.538;8.584;2023-09-19T06:32:31;10.10;;;1.77;;
66521;SDS011;53349;53.538;8.584;2023-09-19T06:34:56;6.45;;;1.40;;
66521;SDS011;53349;53.538;8.584;2023-09-19T06:37:21;5.83;;;1.60;;
66521;SDS011;53349;53.538;8.584;2023-09-19T06:39:47;7.40;;;1.60;;
66521;SDS011;53349;53.538;8.584;2023-09-19T06:42:13;8.90;;;1.67;;
66521;SDS011;53349;53.538;8.584;2023-09-19T06:44:39;7.83;;;1.63;;
66521;SDS011;53349;53.538;8.584;2023-09-19T06:47:04;8.53;;;1.70;;
66521;SDS011;53349;53.538;8.584;2023-09-19T06:49:29;6.27;;;1.60;;
66521;SDS011;53349;53.538;8.584;2023-09-19T06:51:55;7.60;;;1.63;;
66521;SDS011;53349;53.538;8.584;2023-09-19T06:54:21;7.47;;;2.00;;
66521;SDS011;53349;53.538;8.584;2023-09-19T06:56:47;6.68;;;1.40;;
66521;SDS011;53349;53.538;8.584;2023-09-19T06:59:12;6.13;;;1.40;;
66521;SDS011;53349;53.538;8.584;2023-09-19T07:01:37;8.48;;;1.77;;
66521;SDS011;53349;53.538;8.584;2023-09-19T07:04:03;8.67;;;1.70;;
66521;SDS011;53349;53.538;8.584;2023-09-19T07:06:28;6.87;;;1.73;;
66521;SDS011;53349;53.538;8.584;2023-09-19T07:08:54;8.83;;;1.60;;
66521;SDS011;53349;53.538;8.584;2023-09-19T07:11:19;9.10;;;2.00;;
66521;SDS011;53349;53.538;8.584;2023-09-19T07:13:45;8.15;;;1.70;;
66521;SDS011;53349;53.538;8.584;2023-09-19T07:16:10;5.60;;;1.50;;
66521;SDS011;53349;53.538;8.584;2023-09-19T07:18:36;4.73;;;1.30;;
66521;SDS011;53349;53.538;8.584;2023-09-19T07:21:01;9.17;;;1.77;;
66521;SDS011;53349;53.538;8.584;2023-09-19T07:23:27;9.85;;;1.50;;
66521;SDS011;53349;53.538;8.584;2023-09-19T07:25:56;7.43;;;1.60;;
66521;SDS011;53349;53.538;8.584;2023-09-19T07:28:22;8.13;;;1.80;;
66521;SDS011;53349;53.538;8.584;2023-09-19T07:30:47;8.63;;;1.80;;
66521;SDS011;53349;53.538;8.584;2023-09-19T07:33:13;8.82;;;1.70;;
66521;SDS011;53349;53.538;8.584;2023-09-19T07:35:40;6.97;;;1.55;;
66521;SDS011;53349;53.538;8.584;2023-09-19T07:38:12;6.47;;;1.60;;
66521;SDS011;53349;53.538;8.584;2023-09-19T07:40:37;6.45;;;1.95;;
66521;SDS011;53349;53.538;8.584;2023-09-19T07:43:03;7.43;;;1.83;;
66521;SDS011;53349;53.538;8.584;2023-09-19T07:45:29;8.52;;;1.90;;
66521;SDS011;53349;53.538;8.584;2023-09-19T07:47:54;10.87;;;1.90;;
66521;SDS011;53349;53.538;8.584;2023-09-19T07:50:19;8.47;;;1.90;;
66521;SDS011;53349;53.538;8.584;2023-09-19T07:52:48;10.97;;;1.77;;
66521;SDS011;53349;53.538;8.584;2023-09-19T07:55:14;10.45;;;1.75;;
66521;SDS011;53349;53.538;8.584;2023-09-19T07:57:40;9.50;;;2.03;;
66521;SDS011;53349;53.538;8.584;2023-09-19T08:00:05;10.07;;;2.00;;
66521;SDS011;53349;53.538;8.584;2023-09-19T08:02:34;12.13;;;1.90;;
66521;SDS011;53349;53.538;8.584;2023-09-19T08:05:04;8.60;;;2.03;;
66521;SDS011;53349;53.538;8.584;2023-09-19T08:07:31;10.23;;;1.90;;
66521;SDS011;53349;53.538;8.584;2023-09-19T08:09:57;8.75;;;1.80;;
66521;SDS011;53349;53.538;8.584;2023-09-19T08:12:22;7.20;;;1.70;;
66521;SDS011;53349;53.538;8.584;2023-09-19T08:14:48;6.77;;;2.00;;
66521;SDS011;53349;53.538;8.584;2023-09-19T08:17:14;9.57;;;1.60;;
66521;SDS011;53349;53.538;8.584;2023-09-19T08:19:39;7.88;;;1.55;;
66521;SDS011;53349;53.538;8.584;2023-09-19T08:22:05;11.17;;;1.73;;
66521;SDS011;53349;53.538;8.584;2023-09-19T08:24:31;9.65;;;1.90;;
66521;SDS011;53349;53.538;8.584;2023-09-19T08:26:57;11.57;;;1.77;;
66521;SDS011;53349;53.538;8.584;2023-09-19T08:29:24;8.95;;;1.80;;
66521;SDS011;53349;53.538;8.584;2023-09-19T08:31:51;8.75;;;1.83;;
66521;SDS011;53349;53.538;8.584;2023-09-19T08:34:17;9.47;;;1.70;;
66521;SDS011;53349;53.538;8.584;2023-09-19T08:36:42;8.20;;;1.30;;
66521;SDS011;53349;53.538;8.584;2023-09-19T08:39:09;6.70;;;1.48;;
66521;SDS011;53349;53.538;8.584;2023-09-19T08:41:35;7.37;;;1.50;;
66521;SDS011;53349;53.538;8.584;2023-09-19T08:44:00;10.18;;;1.60;;
66521;SDS011;53349;53.538;8.584;2023-09-19T08:46:25;9.25;;;1.77;;
66521;SDS011;53349;53.538;8.584;2023-09-19T08:49:05;7.97;;;1.52;;
66521;SDS011;53349;53.538;8.584;2023-09-19T08:51:42;8.23;;;1.40;;
66521;SDS011;53349;53.538;8.584;2023-09-19T08:54:08;8.02;;;1.48;;
66521;SDS011;53349;53.538;8.584;2023-09-19T08:56:37;6.78;;;1.35;;
66521;SDS011;53349;53.538;8.584;2023-09-19T08:59:03;9.52;;;1.58;;
66521;SDS011;53349;53.538;8.584;2023-09-19T09:01:30;8.85;;;1.50;;
66521;SDS011;53349;53.538;8.584;2023-09-19T09:03:56;10.45;;;1.60;;
66521;SDS011;53349;53.538;8.584;2023-09-19T09:06:23;10.43;;;1.55;;
66521;SDS011;53349;53.538;8.584;2023-09-19T09:08:50;10.60;;;1.98;;
66521;SDS011;53349;53.538;8.584;2023-09-19T09:11:16;8.63;;;1.40;;
66521;SDS011;53349;53.538;8.584;2023-09-19T09:13:42;10.87;;;1.60;;
66521;SDS011;53349;53.538;8.584;2023-09-19T09:16:09;8.65;;;1.80;;
66521;SDS011;53349;53.538;8.584;2023-09-19T09:18:35;9.68;;;1.50;;
66521;SDS011;53349;53.538;8.584;2023-09-19T09:21:02;9.77;;;1.70;;
66521;SDS011;53349;53.538;8.584;2023-09-19T09:23:27;9.40;;;1.97;;
66521;SDS011;53349;53.538;8.584;2023-09-19T09:25:53;7.13;;;1.23;;
66521;SDS011;53349;53.538;8.584;2023-09-19T09:28:20;7.07;;;1.40;;
66521;SDS011;53349;53.538;8.584;2023-09-19T09:30:46;8.40;;;1.60;;
66521;SDS011;53349;53.538;8.584;2023-09-19T09:33:12;5.43;;;1.50;;
66521;SDS011;53349;53.538;8.584;2023-09-19T09:35:48;9.95;;;1.67;;
66521;SDS011;53349;53.538;8.584;2023-09-19T09:38:21;11.98;;;1.70;;
66521;SDS011;53349;53.538;8.584;2023-09-19T09:40:49;8.70;;;1.63;;
66521;SDS011;53349;53.538;8.584;2023-09-19T09:43:31;8.57;;;1.80;;
66521;SDS011;53349;53.538;8.584;2023-09-19T09:48:39;8.32;;;1.50;;
66521;SDS011;53349;53.538;8.584;2023-09-19T09:51:06;10.90;;;1.90;;
66521;SDS011;53349;53.538;8.584;2023-09-19T09:53:33;12.27;;;1.93;;
66521;SDS011;53349;53.538;8.584;2023-09-19T09:58:37;6.57;;;1.67;;
66521;SDS011;53349;53.538;8.584;2023-09-19T10:01:14;10.40;;;1.80;;
66521;SDS011;53349;53.538;8.584;2023-09-19T10:03:40;6.75;;;1.65;;
66521;SDS011;53349;53.538;8.584;2023-09-19T10:06:07;9.20;;;2.33;;
66521;SDS011;53349;53.538;8.584;2023-09-19T10:08:37;8.10;;;1.27;;
66521;SDS011;53349;53.538;8.584;2023-09-19T10:11:14;7.03;;;1.75;;
66521;SDS011;53349;53.538;8.584;2023-09-19T10:13:41;7.32;;;1.88;;
66521;SDS011;53349;53.538;8.584;2023-09-19T10:16:09;7.93;;;1.60;;
66521;SDS011;53349;53.538;8.584;2023-09-19T10:18:36;7.73;;;1.50;;
66521;SDS011;53349;53.538;8.584;2023-09-19T10:21:03;9.48;;;1.90;;
66521;SDS011;53349;53.538;8.584;2023-09-19T10:23:34;11.48;;;1.73;;
66521;SDS011;53349;53.538;8.584;2023-09-19T10:26:02;9.25;;;1.83;;
66521;SDS011;53349;53.538;8.584;2023-09-19T10:28:28;6.40;;;1.77;;
66521;SDS011;53349;53.538;8.584;2023-09-19T10:30:56;7.53;;;1.80;;
66521;SDS011;53349;53.538;8.584;2023-09-19T10:33:24;6.05;;;1.67;;
66521;SDS011;53349;53.538;8.584;2023-09-19T10:35:50;6.40;;;2.08;;
66521;SDS011;53349;53.538;8.584;2023-09-19T10:38:19;10.80;;;2.10;;
66521;SDS011;53349;53.538;8.584;2023-09-19T10:40:51;10.50;;;1.83;;
66521;SDS011;53349;53.538;8.584;2023-09-19T10:43:19;7.20;;;1.80;;
66521;SDS011;53349;53.538;8.584;2023-09-19T10:45:46;9.55;;;1.70;;
66521;SDS011;53349;53.538;8.584;2023-09-19T10:48:13;8.25;;;1.85;;
66521;SDS011;53349;53.538;8.584;2023-09-19T10:50:43;8.47;;;2.00;;
66521;SDS011;53349;53.538;8.584;2023-09-19T10:53:13;8.60;;;1.80;;
66521;SDS011;53349;53.538;8.584;2023-09-19T10:55:48;8.85;;;1.80;;
66521;SDS011;53349;53.538;8.584;2023-09-19T10:58:26;11.40;;;2.05;;
66521;SDS011;53349;53.538;8.584;2023-09-19T11:00:53;7.72;;;1.75;;
66521;SDS011;53349;53.538;8.584;2023-09-19T11:03:22;10.07;;;2.00;;
66521;SDS011;53349;53.538;8.584;2023-09-19T11:08:59;7.60;;;1.90;;
66521;SDS011;53349;53.538;8.584;2023-09-19T11:11:41;6.00;;;1.88;;
66521;SDS011;53349;53.538;8.584;2023-09-19T11:14:50;7.57;;;1.67;;
66521;SDS011;53349;53.538;8.584;2023-09-19T11:30:32;10.18;;;1.83;;
66521;SDS011;53349;53.538;8.584;2023-09-19T11:49:17;9.95;;;2.20;;
66521;SDS011;53349;53.538;8.584;2023-09-19T11:51:44;11.57;;;1.90;;
66521;SDS011;53349;53.538;8.584;2023-09-19T11:54:12;11.60;;;2.03;;
66521;SDS011;53349;53.538;8.584;2023-09-19T11:56:38;9.75;;;2.05;;
66521;SDS011;53349;53.538;8.584;2023-09-19T11:59:05;8.73;;;2.00;;
66521;SDS011;53349;53.538;8.584;2023-09-19T12:01:32;9.80;;;2.47;;
66521;SDS011;53349;53.538;8.584;2023-09-19T12:03:58;8.82;;;1.83;;
66521;SDS011;53349;53.538;8.584;2023-09-19T12:06:27;9.43;;;2.47;;
66521;SDS011;53349;53.538;8.584;2023-09-19T12:08:55;11.77;;;2.15;;
66521;SDS011;53349;53.538;8.584;2023-09-19T12:11:21;12.95;;;2.30;;
66521;SDS011;53349;53.538;8.584;2023-09-19T12:13:47;8.70;;;2.03;;
66521;SDS011;53349;53.538;8.584;2023-09-19T12:16:16;13.33;;;2.00;;
66521;SDS011;53349;53.538;8.584;2023-09-19T12:18:43;8.48;;;1.90;;
66521;SDS011;53349;53.538;8.584;2023-09-19T12:23:59;15.05;;;2.08;;
66521;SDS011;53349;53.538;8.584;2023-09-19T12:26:27;8.18;;;1.67;;
66521;SDS011;53349;53.538;8.584;2023-09-19T12:28:52;12.00;;;1.87;;
66521;SDS011;53349;53.538;8.584;2023-09-19T12:31:19;14.40;;;2.50;;
66521;SDS011;53349;53.538;8.584;2023-09-19T12:33:45;9.98;;;1.80;;
66521;SDS011;53349;53.538;8.584;2023-09-19T12:36:22;8.80;;;1.90;;
66521;SDS011;53349;53.538;8.584;2023-09-19T12:38:48;7.47;;;2.08;;
66521;SDS011;53349;53.538;8.584;2023-09-19T12:41:14;10.97;;;2.10;;
66521;SDS011;53349;53.538;8.584;2023-09-19T12:43:39;17.20;;;1.93;;
66521;SDS011;53349;53.538;8.584;2023-09-19T12:46:05;14.90;;;2.30;;
66521;SDS011;53349;53.538;8.584;2023-09-19T12:48:30;12.23;;;1.90;;
66521;SDS011;53349;53.538;8.584;2023-09-19T12:51:08;10.07;;;1.80;;
66521;SDS011;53349;53.538;8.584;2023-09-19T12:53:36;9.93;;;2.00;;
66521;SDS011;53349;53.538;8.584;2023-09-19T12:56:06;8.60;;;1.83;;
66521;SDS011;53349;53.538;8.584;2023-09-19T12:58:31;9.38;;;2.30;;
66521;SDS011;53349;53.538;8.584;2023-09-19T13:00:57;7.55;;;1.70;;
66521;SDS011;53349;53.538;8.584;2023-09-19T13:05:52;13.87;;;2.20;;
66521;SDS011;53349;53.538;8.584;2023-09-19T13:08:25;11.40;;;2.03;;
66521;SDS011;53349;53.538;8.584;2023-09-19T13:13:33;8.18;;;1.75;;
66521;SDS011;53349;53.538;8.584;2023-09-19T13:15:58;9.60;;;1.95;;
66521;SDS011;53349;53.538;8.584;2023-09-19T13:18:26;12.05;;;1.77;;
66521;SDS011;53349;53.538;8.584;2023-09-19T13:21:11;10.40;;;1.80;;
66521;SDS011;53349;53.538;8.584;2023-09-19T13:23:38;16.90;;;2.60;;
66521;SDS011;53349;53.538;8.584;2023-09-19T13:26:05;14.77;;;2.42;;
66521;SDS011;53349;53.538;8.584;2023-09-19T13:28:31;10.20;;;1.90;;
66521;SDS011;53349;53.538;8.584;2023-09-19T13:30:58;10.20;;;1.90;;
66521;SDS011;53349;53.538;8.584;2023-09-19T13:33:23;10.97;;;1.83;;
66521;SDS011;53349;53.538;8.584;2023-09-19T13:35:49;9.97;;;1.90;;
66521;SDS011;53349;53.538;8.584;2023-09-19T13:38:14;10.77;;;1.77;;
66521;SDS011;53349;53.538;8.584;2023-09-19T13:40:39;10.20;;;1.80;;
66521;SDS011;53349;53.538;8.584;2023-09-19T13:43:05;9.25;;;1.67;;
66521;SDS011;53349;53.538;8.584;2023-09-19T13:45:31;7.70;;;1.58;;
66521;SDS011;53349;53.538;8.584;2023-09-19T13:47:56;9.90;;;1.57;;
66521;SDS011;53349;53.538;8.584;2023-09-19T13:50:21;7.73;;;1.40;;
66521;SDS011;53349;53.538;8.584;2023-09-19T13:52:47;9.47;;;1.63;;
66521;SDS011;53349;53.538;8.584;2023-09-19T13:55:12;7.40;;;1.50;;
66521;SDS011;53349;53.538;8.584;2023-09-19T13:57:38;8.43;;;1.80;;
66521;SDS011;53349;53.538;8.584;2023-09-19T14:00:06;10.10;;;2.40;;
66521;SDS011;53349;53.538;8.584;2023-09-19T14:02:32;12.13;;;2.00;;
66521;SDS011;53349;53.538;8.584;2023-09-19T14:04:57;10.07;;;1.80;;
66521;SDS011;53349;53.538;8.584;2023-09-19T14:07:22;12.70;;;1.70;;
66521;SDS011;53349;53.538;8.584;2023-09-19T14:09:48;9.63;;;1.50;;
66521;SDS011;53349;53.538;8.584;2023-09-19T14:12:13;8.40;;;1.30;;
66521;SDS011;53349;53.538;8.584;2023-09-19T14:14:39;9.80;;;1.55;;
66521;SDS011;53349;53.538;8.584;2023-09-19T14:17:05;9.37;;;1.80;;
66521;SDS011;53349;53.538;8.584;2023-09-19T14:19:30;6.93;;;1.70;;
66521;SDS011;53349;53.538;8.584;2023-09-19T14:21:57;9.07;;;1.60;;
66521;SDS011;53349;53.538;8.584;2023-09-19T14:24:22;12.27;;;2.00;;
66521;SDS011;53349;53.538;8.584;2023-09-19T14:26:54;8.50;;;1.55;;
66521;SDS011;53349;53.538;8.584;2023-09-19T14:29:19;8.10;;;1.50;;
66521;SDS011;53349;53.538;8.584;2023-09-19T14:31:45;10.47;;;2.03;;
66521;SDS011;53349;53.538;8.584;2023-09-19T14:34:10;9.00;;;1.40;;
66521;SDS011;53349;53.538;8.584;2023-09-19T14:36:36;5.53;;;1.35;;
66521;SDS011;53349;53.538;8.584;2023-09-19T14:39:02;10.57;;;1.70;;
66521;SDS011;53349;53.538;8.584;2023-09-19T14:41:27;9.98;;;1.38;;
66521;SDS011;53349;53.538;8.584;2023-09-19T14:43:53;9.00;;;1.53;;
66521;SDS011;53349;53.538;8.584;2023-09-19T14:46:18;7.97;;;1.43;;
66521;SDS011;53349;53.538;8.584;2023-09-19T14:48:45;13.82;;;2.08;;
66521;SDS011;53349;53.538;8.584;2023-09-19T14:51:10;10.20;;;1.73;;
66521;SDS011;53349;53.538;8.584;2023-09-19T14:53:37;8.63;;;1.70;;
66521;SDS011;53349;53.538;8.584;2023-09-19T14:56:03;10.13;;;2.10;;
66521;SDS011;53349;53.538;8.584;2023-09-19T14:58:29;11.03;;;1.40;;
66521;SDS011;53349;53.538;8.584;2023-09-19T15:01:08;7.28;;;1.30;;
66521;SDS011;53349;53.538;8.584;2023-09-19T15:03:36;7.50;;;1.40;;
66521;SDS011;53349;53.538;8.584;2023-09-19T15:06:03;7.93;;;1.30;;
66521;SDS011;53349;53.538;8.584;2023-09-19T15:08:29;7.22;;;1.50;;
66521;SDS011;53349;53.538;8.584;2023-09-19T15:10:54;10.53;;;1.70;;
66521;SDS011;53349;53.538;8.584;2023-09-19T15:13:19;9.13;;;1.50;;
66521;SDS011;53349;53.538;8.584;2023-09-19T15:15:46;9.98;;;1.63;;
66521;SDS011;53349;53.538;8.584;2023-09-19T15:18:11;8.23;;;1.50;;
66521;SDS011;53349;53.538;8.584;2023-09-19T15:20:42;9.83;;;1.77;;
66521;SDS011;53349;53.538;8.584;2023-09-19T15:23:08;10.50;;;1.55;;
66521;SDS011;53349;53.538;8.584;2023-09-19T15:25:34;11.50;;;1.77;;
66521;SDS011;53349;53.538;8.584;2023-09-19T15:28:01;6.57;;;1.40;;
66521;SDS011;53349;53.538;8.584;2023-09-19T15:30:26;9.70;;;1.73;;
66521;SDS011;53349;53.538;8.584;2023-09-19T15:32:52;6.57;;;1.55;;
66521;SDS011;53349;53.538;8.584;2023-09-19T15:35:17;5.53;;;1.20;;
66521;SDS011;53349;53.538;8.584;2023-09-19T15:37:43;7.40;;;1.50;;
66521;SDS011;53349;53.538;8.584;2023-09-19T15:40:08;5.50;;;1.20;;
66521;SDS011;53349;53.538;8.584;2023-09-19T15:42:33;8.27;;;1.43;;
66521;SDS011;53349;53.538;8.584;2023-09-19T15:44:59;14.23;;;1.50;;
66521;SDS011;53349;53.538;8.584;2023-09-19T15:47:24;7.70;;;1.58;;
66521;SDS011;53349;53.538;8.584;2023-09-19T15:49:49;7.18;;;1.40;;
66521;SDS011;53349;53.538;8.584;2023-09-19T15:52:16;11.13;;;1.73;;
66521;SDS011;53349;53.538;8.584;2023-09-19T15:54:42;8.40;;;1.30;;